Time;durP1;ratioP1;P1;durP2;ratioP2;P2;SDS_P1;SDS_P2;PMS_P1;PMS_P2;Temp;Humidity;BMP_temperature;BMP_pressure;BME280_temperature;BME280_humidity;BME280_pressure;Samples;Min_cycle;Max_cycle;Signal;HPM_P1;HPM_P2
2023/04/13 00:01:58;;;;;;;;;;;21.60;52.80;;;;;;1552262;75;738;-65
2023/04/13 00:04:03;;;;;;;;;;;21.60;52.50;;;;;;1553359;75;1928;-65
2023/04/13 00:06:04;;;;;;;;;;;21.60;52.50;;;;;;1559818;75;1688;-65
2023/04/13 00:08:06;;;;;;;;;;;21.70;52.80;;;;;;1549527;75;1012;-66
2023/04/13 00:10:08;;;;;;;;;;;21.60;52.40;;;;;;1539530;76;720;-67
2023/04/13 00:12:11;;;;;;;;;;;21.60;52.10;;;;;;1532679;76;772;-67
2023/04/13 00:14:13;;;;;;;;;;;21.60;52.20;;;;;;1531104;76;1640;-67
2023/04/13 00:16:15;;;;;;;;;;;21.60;52.10;;;;;;1528906;76;677;-67
2023/04/13 00:18:19;;;;;;;;;;;21.70;52.00;;;;;;1533715;76;723;-68
2023/04/13 00:20:20;;;;;;;;;;;21.70;52.00;;;;;;1530179;76;1749;-68
2023/04/13 00:22:23;;;;;;;;;;;21.70;51.80;;;;;;1542322;76;695;-68
2023/04/13 00:24:25;;;;;;;;;;;21.60;52.10;;;;;;1530124;76;1936;-66
2023/04/13 00:26:27;;;;;;;;;;;21.60;52.00;;;;;;1524381;76;699;-66
2023/04/13 00:28:29;;;;;;;;;;;21.60;51.90;;;;;;1524387;76;1446;-67
2023/04/13 00:30:31;;;;;;;;;;;21.70;51.90;;;;;;1530927;76;650;-67
2023/04/13 00:32:33;;;;;;;;;;;21.70;52.20;;;;;;1523098;76;731;-67
2023/04/13 00:34:35;;;;;;;;;;;21.70;52.10;;;;;;1517493;76;1155;-67
2023/04/13 00:36:37;;;;;;;;;;;21.70;52.20;;;;;;1515742;76;590;-67
2023/04/13 00:38:43;;;;;;;;;;;21.70;52.20;;;;;;1541505;76;770;-67
2023/04/13 00:40:43;;;;;;;;;;;21.60;52.20;;;;;;1533746;76;1591;-67
2023/04/13 00:42:45;;;;;;;;;;;21.60;52.10;;;;;;1535065;76;1550;-67
2023/04/13 00:44:47;;;;;;;;;;;21.60;52.10;;;;;;1529641;76;1926;-68
2023/04/13 00:46:49;;;;;;;;;;;21.70;52.20;;;;;;1524748;76;792;-68
2023/04/13 00:48:51;;;;;;;;;;;21.70;52.20;;;;;;1532208;76;740;-68
2023/04/13 00:50:53;;;;;;;;;;;21.70;52.00;;;;;;1528839;76;691;-66
2023/04/13 00:52:56;;;;;;;;;;;21.70;52.20;;;;;;1521485;76;674;-67
2023/04/13 00:55:01;;;;;;;;;;;21.70;52.20;;;;;;1516868;76;1162;-66
2023/04/13 00:57:03;;;;;;;;;;;21.70;52.30;;;;;;1521643;76;1635;-65
2023/04/13 00:59:06;;;;;;;;;;;21.60;52.20;;;;;;1520065;76;718;-66
2023/04/13 01:01:08;;;;;;;;;;;21.60;52.40;;;;;;1524084;76;740;-67
2023/04/13 01:03:11;;;;;;;;;;;21.70;52.40;;;;;;1521451;76;671;-66
2023/04/13 01:05:15;;;;;;;;;;;21.60;52.10;;;;;;1530471;76;1916;-68
2023/04/13 01:07:18;;;;;;;;;;;21.60;52.10;;;;;;1523565;76;1504;-68
2023/04/13 01:09:21;;;;;;;;;;;21.70;52.10;;;;;;1537002;76;1936;-67
2023/04/13 01:11:31;;;;;;;;;;;21.70;52.10;;;;;;1557487;75;1599;-67
2023/04/13 01:13:34;;;;;;;;;;;21.70;51.90;;;;;;1557591;75;1774;-68
2023/04/13 01:15:37;;;;;;;;;;;21.70;52.00;;;;;;1554060;75;812;-67
2023/04/13 01:17:40;;;;;;;;;;;21.60;51.80;;;;;;1555357;75;679;-66
2023/04/13 01:19:50;;;;;;;;;;;21.70;51.80;;;;;;1562736;75;699;-66
2023/04/13 01:21:53;;;;;;;;;;;21.70;51.90;;;;;;1559930;75;1560;-67
2023/04/13 01:23:56;;;;;;;;;;;21.70;52.00;;;;;;1561422;75;1932;-66
2023/04/13 01:25:59;;;;;;;;;;;21.70;52.10;;;;;;1567335;75;1439;-66
2023/04/13 01:28:06;;;;;;;;;;;21.70;52.10;;;;;;1551918;75;675;-67
2023/04/13 01:30:09;;;;;;;;;;;21.70;52.10;;;;;;1562262;75;646;-68
2023/04/13 01:32:11;;;;;;;;;;;21.70;51.90;;;;;;1562450;75;642;-66
2023/04/13 01:34:13;;;;;;;;;;;21.70;51.90;;;;;;1566572;74;1143;-67
2023/04/13 01:36:15;;;;;;;;;;;21.70;52.10;;;;;;1555267;75;678;-67
2023/04/13 01:38:19;;;;;;;;;;;21.70;52.10;;;;;;1553553;75;1339;-68
2023/04/13 01:40:21;;;;;;;;;;;21.70;52.00;;;;;;1559381;75;1940;-67
2023/04/13 01:42:24;;;;;;;;;;;21.70;52.00;;;;;;1562175;75;790;-66
2023/04/13 01:44:26;;;;;;;;;;;21.70;52.10;;;;;;1560108;75;1925;-68
2023/04/13 01:46:29;;;;;;;;;;;21.70;52.00;;;;;;1557473;75;597;-64
2023/04/13 01:48:36;;;;;;;;;;;21.70;51.90;;;;;;1556401;75;819;-65
2023/04/13 01:50:39;;;;;;;;;;;21.70;51.80;;;;;;1560738;75;656;-66
2023/04/13 01:52:41;;;;;;;;;;;21.70;51.80;;;;;;1558609;75;1293;-66
2023/04/13 01:54:44;;;;;;;;;;;21.80;51.80;;;;;;1550361;76;1165;-67
2023/04/13 01:56:47;;;;;;;;;;;21.70;51.80;;;;;;1554844;75;717;-66
2023/04/13 01:58:50;;;;;;;;;;;21.70;51.80;;;;;;1563764;75;777;-64
2023/04/13 02:00:53;;;;;;;;;;;21.70;51.70;;;;;;1563383;75;695;-66
2023/04/13 02:02:55;;;;;;;;;;;21.70;51.80;;;;;;1557286;75;693;-64
2023/04/13 02:04:58;;;;;;;;;;;21.70;51.80;;;;;;1563807;75;1938;-64
2023/04/13 02:07:01;;;;;;;;;;;21.80;51.80;;;;;;1550760;75;1474;-65
2023/04/13 02:09:06;;;;;;;;;;;21.70;51.80;;;;;;1557522;75;1526;-64
2023/04/13 02:11:09;;;;;;;;;;;21.80;52.00;;;;;;1546348;76;893;-65
2023/04/13 02:13:10;;;;;;;;;;;21.60;51.80;;;;;;1545084;76;709;-64
2023/04/13 02:15:12;;;;;;;;;;;21.70;52.10;;;;;;1545571;76;1162;-66
2023/04/13 02:17:14;;;;;;;;;;;21.70;52.10;;;;;;1539419;76;773;-64
2023/04/13 02:19:16;;;;;;;;;;;21.70;51.90;;;;;;1547252;76;698;-66
2023/04/13 02:21:18;;;;;;;;;;;21.70;51.90;;;;;;1544742;76;1341;-64
2023/04/13 02:23:20;;;;;;;;;;;21.80;51.90;;;;;;1547628;76;727;-64
2023/04/13 02:25:22;;;;;;;;;;;21.80;51.90;;;;;;1543842;76;1938;-66
2023/04/13 02:27:24;;;;;;;;;;;21.70;51.80;;;;;;1542801;76;795;-66
2023/04/13 02:29:27;;;;;;;;;;;21.70;51.90;;;;;;1539456;76;715;-66
2023/04/13 02:31:30;;;;;;;;;;;21.70;51.90;;;;;;1553106;76;726;-66
2023/04/13 02:33:32;;;;;;;;;;;21.70;51.80;;;;;;1553776;75;1152;-65
2023/04/13 02:35:37;;;;;;;;;;;21.70;52.10;;;;;;1554846;76;1591;-67
2023/04/13 02:37:41;;;;;;;;;;;21.70;52.70;;;;;;1532595;76;1481;-66
2023/04/13 02:39:43;;;;;;;;;;;21.70;52.40;;;;;;1536185;76;699;-67
2023/04/13 02:41:46;;;;;;;;;;;21.60;52.30;;;;;;1557118;76;721;-67
2023/04/13 02:43:50;;;;;;;;;;;21.60;52.40;;;;;;1524063;76;1142;-67
2023/04/13 02:45:52;;;;;;;;;;;21.50;52.50;;;;;;1528845;76;1929;-68
2023/04/13 02:47:55;;;;;;;;;;;21.60;52.40;;;;;;1536820;76;767;-66
2023/04/13 02:49:57;;;;;;;;;;;21.60;52.40;;;;;;1544841;76;1551;-66
2023/04/13 02:51:59;;;;;;;;;;;21.60;52.30;;;;;;1543271;76;803;-66
2023/04/13 02:54:01;;;;;;;;;;;21.60;52.40;;;;;;1538868;76;1176;-66
2023/04/13 02:56:05;;;;;;;;;;;21.60;52.30;;;;;;1540811;76;695;-66
2023/04/13 02:58:07;;;;;;;;;;;21.60;52.30;;;;;;1540329;76;758;-66
2023/04/13 03:00:10;;;;;;;;;;;21.60;52.40;;;;;;1538628;76;804;-66
2023/04/13 03:02:12;;;;;;;;;;;21.60;52.30;;;;;;1547941;76;762;-66
2023/04/13 03:04:14;;;;;;;;;;;21.60;52.30;;;;;;1542774;76;1943;-66
2023/04/13 03:06:16;;;;;;;;;;;21.50;52.30;;;;;;1548275;76;776;-66
2023/04/13 03:08:18;;;;;;;;;;;21.60;52.30;;;;;;1548803;76;673;-66
2023/04/13 03:10:20;;;;;;;;;;;21.60;52.30;;;;;;1554957;75;1060;-68
2023/04/13 03:12:22;;;;;;;;;;;21.60;52.30;;;;;;1567921;75;793;-69
2023/04/13 03:14:28;;;;;;;;;;;21.60;52.30;;;;;;1551511;74;1160;-68
2023/04/13 03:16:28;;;;;;;;;;;21.60;52.30;;;;;;1545569;75;1591;-69
2023/04/13 03:18:31;;;;;;;;;;;21.60;52.30;;;;;;1561543;75;1676;-69
2023/04/13 03:20:33;;;;;;;;;;;21.60;52.20;;;;;;1554928;75;723;-68
2023/04/13 03:22:35;;;;;;;;;;;21.60;52.40;;;;;;1550782;75;837;-69
2023/04/13 03:24:37;;;;;;;;;;;21.60;52.40;;;;;;1560927;75;1980;-68
2023/04/13 03:26:39;;;;;;;;;;;21.70;52.40;;;;;;1545168;75;662;-68
2023/04/13 03:28:41;;;;;;;;;;;21.70;52.40;;;;;;1563796;75;716;-68
2023/04/13 03:30:43;;;;;;;;;;;21.70;52.50;;;;;;1548995;75;765;-67
2023/04/13 03:32:45;;;;;;;;;;;21.70;52.40;;;;;;1564218;75;1852;-68
2023/04/13 03:34:47;;;;;;;;;;;21.70;52.40;;;;;;1541380;75;1106;-67
2023/04/13 03:36:49;;;;;;;;;;;21.70;52.50;;;;;;1547700;75;677;-67
2023/04/13 03:38:51;;;;;;;;;;;21.80;52.60;;;;;;1557533;75;709;-66
2023/04/13 03:40:53;;;;;;;;;;;21.70;52.50;;;;;;1557063;75;734;-65
2023/04/13 03:42:55;;;;;;;;;;;21.80;52.60;;;;;;1545387;75;675;-65
2023/04/13 03:44:57;;;;;;;;;;;21.70;52.60;;;;;;1537299;75;1956;-65
2023/04/13 03:47:00;;;;;;;;;;;21.80;52.60;;;;;;1551853;75;730;-65
2023/04/13 03:49:01;;;;;;;;;;;21.80;52.60;;;;;;1557331;75;723;-65
2023/04/13 03:51:03;;;;;;;;;;;21.80;52.40;;;;;;1554441;75;765;-65
2023/04/13 03:53:05;;;;;;;;;;;21.80;52.50;;;;;;1550474;75;661;-65
2023/04/13 03:55:07;;;;;;;;;;;21.80;52.40;;;;;;1542064;74;1154;-65
2023/04/13 03:57:09;;;;;;;;;;;21.80;52.40;;;;;;1551340;75;728;-67
2023/04/13 03:59:11;;;;;;;;;;;21.90;52.40;;;;;;1561853;75;1552;-68
2023/04/13 04:01:13;;;;;;;;;;;21.90;52.50;;;;;;1555888;75;866;-66
2023/04/13 04:03:16;;;;;;;;;;;21.80;52.30;;;;;;1547222;75;817;-67
2023/04/13 04:05:18;;;;;;;;;;;21.80;52.80;;;;;;1553094;75;1938;-68
2023/04/13 04:07:22;;;;;;;;;;;21.70;53.80;;;;;;1548846;75;634;-67
2023/04/13 04:09:23;;;;;;;;;;;21.60;53.50;;;;;;1561992;75;1985;-68
2023/04/13 04:11:26;;;;;;;;;;;21.70;53.40;;;;;;1560884;75;1122;-69
2023/04/13 04:13:30;;;;;;;;;;;21.70;53.10;;;;;;1554377;75;1556;-69
2023/04/13 04:15:32;;;;;;;;;;;21.70;52.90;;;;;;1552823;75;673;-68
2023/04/13 04:17:34;;;;;;;;;;;21.80;52.70;;;;;;1560453;75;752;-70
2023/04/13 04:19:36;;;;;;;;;;;21.80;52.60;;;;;;1554370;75;680;-70
2023/04/13 04:21:43;;;;;;;;;;;21.80;52.60;;;;;;1557947;75;657;-70
2023/04/13 04:23:43;;;;;;;;;;;21.80;52.50;;;;;;1550928;75;1628;-70
2023/04/13 04:25:45;;;;;;;;;;;21.80;52.50;;;;;;1559006;75;1919;-71
2023/04/13 04:27:56;;;;;;;;;;;21.80;52.50;;;;;;1557353;75;1338;-70
2023/04/13 04:29:58;;;;;;;;;;;21.80;52.40;;;;;;1549022;75;1654;-68
2023/04/13 04:32:01;;;;;;;;;;;21.80;52.70;;;;;;1560447;75;715;-68
2023/04/13 04:34:03;;;;;;;;;;;21.80;52.60;;;;;;1554888;75;1914;-68
2023/04/13 04:36:06;;;;;;;;;;;21.80;52.50;;;;;;1560679;75;626;-68
2023/04/13 04:38:08;;;;;;;;;;;21.80;52.50;;;;;;1549437;75;622;-68
2023/04/13 04:40:11;;;;;;;;;;;21.80;52.50;;;;;;1547126;75;716;-68
2023/04/13 04:42:13;;;;;;;;;;;21.80;52.40;;;;;;1551338;75;1549;-67
2023/04/13 04:44:18;;;;;;;;;;;21.80;52.30;;;;;;1534363;75;1126;-65
2023/04/13 04:46:20;;;;;;;;;;;21.80;52.30;;;;;;1557438;75;1927;-65
2023/04/13 04:48:25;;;;;;;;;;;21.80;52.40;;;;;;1551212;75;714;-65
2023/04/13 04:50:27;;;;;;;;;;;21.80;52.40;;;;;;1557545;75;762;-65
2023/04/13 04:52:31;;;;;;;;;;;21.80;52.40;;;;;;1549389;75;798;-65
2023/04/13 04:54:33;;;;;;;;;;;21.80;52.50;;;;;;1552629;74;1646;-65
2023/04/13 04:56:35;;;;;;;;;;;21.70;52.50;;;;;;1559668;75;1342;-66
2023/04/13 04:58:36;;;;;;;;;;;21.80;52.50;;;;;;1546477;75;662;-66
2023/04/13 05:00:38;;;;;;;;;;;21.70;52.50;;;;;;1543262;75;709;-66
2023/04/13 05:02:41;;;;;;;;;;;21.80;52.60;;;;;;1550934;75;752;-66
2023/04/13 05:04:43;;;;;;;;;;;21.70;52.50;;;;;;1556042;75;1144;-66
2023/04/13 05:06:45;;;;;;;;;;;21.70;52.50;;;;;;1556023;75;1915;-65
2023/04/13 05:08:47;;;;;;;;;;;21.70;52.50;;;;;;1558269;75;731;-65
2023/04/13 05:10:49;;;;;;;;;;;21.70;53.20;;;;;;1549813;75;1537;-67
2023/04/13 05:12:51;;;;;;;;;;;21.60;53.60;;;;;;1546876;75;620;-69
2023/04/13 05:14:53;;;;;;;;;;;21.50;53.90;;;;;;1551819;75;1181;-66
2023/04/13 05:16:55;;;;;;;;;;;21.50;54.20;;;;;;1557003;75;741;-65
2023/04/13 05:18:57;;;;;;;;;;;21.50;54.10;;;;;;1558291;75;781;-66
2023/04/13 05:20:58;;;;;;;;;;;21.40;54.10;;;;;;1545055;75;559;-66
2023/04/13 05:23:01;;;;;;;;;;;21.50;54.50;;;;;;1548534;75;647;-65
2023/04/13 05:25:03;;;;;;;;;;;21.50;54.40;;;;;;1559540;74;1929;-67
2023/04/13 05:27:08;;;;;;;;;;;21.50;54.50;;;;;;1551137;75;795;-67
2023/04/13 05:29:09;;;;;;;;;;;21.50;54.50;;;;;;1548868;75;960;-69
2023/04/13 05:31:11;;;;;;;;;;;21.50;54.40;;;;;;1558291;75;756;-66
2023/04/13 05:33:13;;;;;;;;;;;21.50;54.40;;;;;;1557015;75;653;-67
2023/04/13 05:35:14;;;;;;;;;;;21.50;54.70;;;;;;1552357;75;1096;-66
2023/04/13 05:37:16;;;;;;;;;;;21.40;54.70;;;;;;1550500;75;700;-68
2023/04/13 05:39:19;;;;;;;;;;;21.40;54.20;;;;;;1545608;75;1662;-66
2023/04/13 05:41:21;;;;;;;;;;;21.50;54.50;;;;;;1552350;75;727;-67
2023/04/13 05:43:23;;;;;;;;;;;21.50;54.10;;;;;;1557976;75;782;-68
2023/04/13 05:45:26;;;;;;;;;;;21.60;53.80;;;;;;1548093;75;1946;-67
2023/04/13 05:47:28;;;;;;;;;;;21.50;53.70;;;;;;1548394;75;808;-66
2023/04/13 05:49:30;;;;;;;;;;;21.60;53.10;;;;;;1553599;75;725;-66
2023/04/13 05:51:32;;;;;;;;;;;21.60;52.20;;;;;;1556763;75;1505;-66
2023/04/13 05:53:34;;;;;;;;;;;21.60;51.40;;;;;;1553985;75;1143;-66
2023/04/13 05:55:36;;;;;;;;;;;21.60;50.40;;;;;;1549880;75;738;-66
2023/04/13 05:57:38;;;;;;;;;;;21.60;49.90;;;;;;1543454;74;1406;-66
2023/04/13 05:59:40;;;;;;;;;;;21.60;49.40;;;;;;1541083;75;1493;-66
2023/04/13 06:01:42;;;;;;;;;;;21.50;49.00;;;;;;1550864;75;1539;-66
2023/04/13 06:03:45;;;;;;;;;;;21.60;48.60;;;;;;1549384;75;1523;-66
2023/04/13 06:05:47;;;;;;;;;;;21.50;48.20;;;;;;1547630;76;1925;-66
2023/04/13 06:07:49;;;;;;;;;;;21.50;48.30;;;;;;1543733;76;1309;-65
2023/04/13 06:09:51;;;;;;;;;;;21.40;47.90;;;;;;1537895;75;1496;-66
2023/04/13 06:11:53;;;;;;;;;;;21.50;48.00;;;;;;1549271;75;1329;-65
2023/04/13 06:13:55;;;;;;;;;;;21.50;47.70;;;;;;1538685;75;1481;-65
2023/04/13 06:15:57;;;;;;;;;;;21.50;47.40;;;;;;1534696;76;1492;-68
2023/04/13 06:17:59;;;;;;;;;;;21.50;47.10;;;;;;1551173;76;1267;-67
2023/04/13 06:20:04;;;;;;;;;;;21.50;47.10;;;;;;1535881;75;1497;-67
2023/04/13 06:22:04;;;;;;;;;;;21.50;46.50;;;;;;1548038;75;1522;-67
2023/04/13 06:24:06;;;;;;;;;;;21.40;46.20;;;;;;1535664;75;1513;-67
2023/04/13 06:26:08;;;;;;;;;;;21.40;46.30;;;;;;1539451;76;1951;-67
2023/04/13 06:28:10;;;;;;;;;;;21.40;45.90;;;;;;1539129;75;1588;-67
2023/04/13 06:30:12;;;;;;;;;;;21.40;46.00;;;;;;1535393;75;1520;-67
2023/04/13 06:32:15;;;;;;;;;;;21.30;45.80;;;;;;1546022;75;1134;-68
2023/04/13 06:34:17;;;;;;;;;;;21.40;45.60;;;;;;1530853;75;1488;-67
2023/04/13 06:36:19;;;;;;;;;;;21.40;45.30;;;;;;1534838;75;1514;-67
2023/04/13 06:38:21;;;;;;;;;;;21.40;45.30;;;;;;1525625;75;1487;-67
2023/04/13 06:40:24;;;;;;;;;;;21.30;45.00;;;;;;1541919;75;1507;-67
2023/04/13 06:42:26;;;;;;;;;;;21.30;45.10;;;;;;1542272;76;1539;-67
2023/04/13 06:44:28;;;;;;;;;;;21.40;44.80;;;;;;1545160;75;1498;-67
2023/04/13 06:46:30;;;;;;;;;;;21.40;44.70;;;;;;1547785;76;1937;-67
2023/04/13 06:48:32;;;;;;;;;;;21.30;44.50;;;;;;1537687;75;1597;-68
2023/04/13 06:50:34;;;;;;;;;;;21.40;44.40;;;;;;1542236;75;1428;-67
2023/04/13 06:52:36;;;;;;;;;;;21.40;44.20;;;;;;1539833;75;1520;-67
2023/04/13 06:54:38;;;;;;;;;;;21.40;43.90;;;;;;1540208;76;1489;-68
2023/04/13 06:56:40;;;;;;;;;;;21.30;43.60;;;;;;1542328;75;1511;-68
2023/04/13 06:58:42;;;;;;;;;;;21.30;43.70;;;;;;1546096;75;1109;-66
2023/04/13 07:00:43;;;;;;;;;;;21.30;43.40;;;;;;1544777;76;1801;-67
2023/04/13 07:02:46;;;;;;;;;;;21.30;43.60;;;;;;1545413;75;1514;-67
2023/04/13 07:04:47;;;;;;;;;;;21.30;43.10;;;;;;1529380;75;1487;-65
2023/04/13 07:06:50;;;;;;;;;;;21.40;42.90;;;;;;1541295;75;1916;-65
2023/04/13 07:08:52;;;;;;;;;;;21.30;42.90;;;;;;1542489;75;1481;-65
2023/04/13 07:10:56;;;;;;;;;;;21.20;42.90;;;;;;1539235;75;1324;-65
2023/04/13 07:12:58;;;;;;;;;;;21.20;42.70;;;;;;1547559;76;1311;-65
2023/04/13 07:15:00;;;;;;;;;;;21.20;42.70;;;;;;1541890;75;1310;-65
2023/04/13 07:17:02;;;;;;;;;;;21.30;42.60;;;;;;1550684;75;1631;-65
2023/04/13 07:19:04;;;;;;;;;;;21.30;42.30;;;;;;1550574;76;1497;-66
2023/04/13 07:21:06;;;;;;;;;;;21.30;42.40;;;;;;1546430;76;1561;-65
2023/04/13 07:23:08;;;;;;;;;;;21.20;42.30;;;;;;1546131;76;1478;-63
2023/04/13 07:25:10;;;;;;;;;;;21.20;42.20;;;;;;1532504;76;1558;-66
2023/04/13 07:27:12;;;;;;;;;;;21.30;42.30;;;;;;1546664;76;1919;-67
2023/04/13 07:29:15;;;;;;;;;;;21.20;42.70;;;;;;1546662;75;1556;-66
2023/04/13 07:31:17;;;;;;;;;;;21.30;43.20;;;;;;1544197;76;1403;-66
2023/04/13 07:33:19;;;;;;;;;;;21.30;43.60;;;;;;1546171;76;1176;-66
2023/04/13 07:35:21;;;;;;;;;;;21.20;43.80;;;;;;1540551;75;1537;-66
2023/04/13 07:37:23;;;;;;;;;;;21.20;44.10;;;;;;1536587;76;1207;-66
2023/04/13 07:39:26;;;;;;;;;;;21.20;44.40;;;;;;1552403;76;1518;-66
2023/04/13 07:41:28;;;;;;;;;;;21.20;44.70;;;;;;1546880;76;1437;-66
2023/04/13 07:43:30;;;;;;;;;;;21.20;44.70;;;;;;1539916;76;1464;-66
2023/04/13 07:45:32;;;;;;;;;;;21.20;45.00;;;;;;1545332;76;1539;-66
2023/04/13 07:47:34;;;;;;;;;;;21.20;45.00;;;;;;1538529;75;1945;-66
2023/04/13 07:49:36;;;;;;;;;;;21.20;45.10;;;;;;1544056;76;1466;-66
2023/04/13 07:51:38;;;;;;;;;;;21.30;45.30;;;;;;1545505;75;1499;-65
2023/04/13 07:53:40;;;;;;;;;;;21.30;45.40;;;;;;1538813;75;1371;-66
2023/04/13 07:55:42;;;;;;;;;;;21.30;45.50;;;;;;1549144;75;1249;-66
2023/04/13 07:57:43;;;;;;;;;;;21.40;45.50;;;;;;1543509;75;1483;-66
2023/04/13 07:59:45;;;;;;;;;;;21.40;45.60;;;;;;1542495;75;1490;-67
2023/04/13 08:01:47;;;;;;;;;;;21.50;45.80;;;;;;1544126;75;1083;-66
2023/04/13 08:03:49;;;;;;;;;;;21.30;45.70;;;;;;1544331;75;1596;-66
2023/04/13 08:05:51;;;;;;;;;;;21.50;46.00;;;;;;1543204;75;1156;-67
2023/04/13 08:07:53;;;;;;;;;;;21.40;45.90;;;;;;1550645;76;1747;-66
2023/04/13 08:09:55;;;;;;;;;;;21.50;46.10;;;;;;1536376;75;1500;-66
2023/04/13 08:11:57;;;;;;;;;;;21.50;46.20;;;;;;1537941;75;1428;-66
2023/04/13 08:14:00;;;;;;;;;;;21.60;46.30;;;;;;1542826;75;1693;-66
2023/04/13 08:16:01;;;;;;;;;;;21.60;46.30;;;;;;1542937;75;1494;-66
2023/04/13 08:18:03;;;;;;;;;;;21.60;46.40;;;;;;1539083;76;1676;-66
2023/04/13 08:20:07;;;;;;;;;;;21.60;46.30;;;;;;1543802;75;1497;-66
2023/04/13 08:22:10;;;;;;;;;;;21.60;46.30;;;;;;1541182;76;1517;-66
2023/04/13 08:24:12;;;;;;;;;;;21.60;46.30;;;;;;1547696;75;1326;-67
2023/04/13 08:26:17;;;;;;;;;;;21.60;46.40;;;;;;1540307;76;1947;-66
2023/04/13 08:28:19;;;;;;;;;;;21.60;46.40;;;;;;1547336;76;1486;-66
2023/04/13 08:30:21;;;;;;;;;;;21.60;46.30;;;;;;1549405;76;1321;-66
2023/04/13 08:32:23;;;;;;;;;;;21.60;46.40;;;;;;1533949;76;1446;-66
2023/04/13 08:34:25;;;;;;;;;;;21.70;46.50;;;;;;1544462;75;1422;-67
2023/04/13 08:36:27;;;;;;;;;;;21.70;46.50;;;;;;1535805;76;1394;-66
2023/04/13 08:38:29;;;;;;;;;;;21.70;46.60;;;;;;1547540;76;1266;-67
2023/04/13 08:40:31;;;;;;;;;;;21.80;46.60;;;;;;1544652;75;1525;-66
2023/04/13 08:42:34;;;;;;;;;;;21.80;46.60;;;;;;1521771;76;1817;-66
2023/04/13 08:44:38;;;;;;;;;;;21.90;46.70;;;;;;1545152;76;1432;-66
2023/04/13 08:46:41;;;;;;;;;;;21.90;46.70;;;;;;1548645;76;1920;-66
2023/04/13 08:48:44;;;;;;;;;;;21.90;46.70;;;;;;1543797;75;1430;-66
2023/04/13 08:50:46;;;;;;;;;;;22.00;46.70;;;;;;1544356;75;1489;-67
2023/04/13 08:52:48;;;;;;;;;;;22.00;46.60;;;;;;1537610;76;1397;-67
2023/04/13 08:54:50;;;;;;;;;;;22.00;46.70;;;;;;1545589;75;1419;-67
2023/04/13 08:56:52;;;;;;;;;;;22.00;46.50;;;;;;1543044;75;1529;-66
2023/04/13 08:58:58;;;;;;;;;;;22.00;46.50;;;;;;1538494;75;1522;-66
2023/04/13 09:01:00;;;;;;;;;;;22.00;46.50;;;;;;1509091;76;1449;-66
2023/04/13 09:03:02;;;;;;;;;;;22.00;46.50;;;;;;1517999;77;1474;-66
2023/04/13 09:05:14;;;;;;;;;;;22.10;46.60;;;;;;1514813;76;1469;-66
2023/04/13 09:07:15;;;;;;;;;;;22.00;46.50;;;;;;1511722;77;1915;-66
2023/04/13 09:09:17;;;;;;;;;;;22.00;46.50;;;;;;1514321;76;1724;-66
2023/04/13 09:11:20;;;;;;;;;;;22.00;46.40;;;;;;1501245;76;1412;-66
2023/04/13 09:13:22;;;;;;;;;;;22.00;46.40;;;;;;1510574;76;1515;-67
2023/04/13 09:15:24;;;;;;;;;;;22.00;46.50;;;;;;1514541;76;1378;-66
2023/04/13 09:17:29;;;;;;;;;;;22.00;46.50;;;;;;1520891;76;1547;-66
2023/04/13 09:19:31;;;;;;;;;;;22.00;46.60;;;;;;1521316;76;1103;-66
2023/04/13 09:21:37;;;;;;;;;;;22.00;46.50;;;;;;1521037;76;1366;-66
2023/04/13 09:23:39;;;;;;;;;;;22.00;46.50;;;;;;1512261;76;2068;-66
2023/04/13 09:25:42;;;;;;;;;;;22.00;46.50;;;;;;1514476;76;1496;-66
2023/04/13 09:27:44;;;;;;;;;;;22.00;46.50;;;;;;1508520;76;1930;-66
2023/04/13 09:29:50;;;;;;;;;;;22.10;46.60;;;;;;1516181;76;1524;-67
2023/04/13 09:31:52;;;;;;;;;;;22.10;46.60;;;;;;1518659;76;1385;-66
2023/04/13 09:33:54;;;;;;;;;;;22.10;46.60;;;;;;1514162;76;1410;-66
2023/04/13 09:35:56;;;;;;;;;;;22.10;46.60;;;;;;1525124;76;1530;-66
2023/04/13 09:38:03;;;;;;;;;;;22.20;46.50;;;;;;1533886;76;1678;-66
2023/04/13 09:40:12;;;;;;;;;;;22.20;46.50;;;;;;1512773;76;1600;-66
2023/04/13 09:42:17;;;;;;;;;;;22.20;46.50;;;;;;1506230;76;1475;-66
2023/04/13 09:44:19;;;;;;;;;;;22.20;46.50;;;;;;1511505;77;1702;-67
2023/04/13 09:46:21;;;;;;;;;;;22.30;46.50;;;;;;1519348;76;1521;-66
2023/04/13 09:48:23;;;;;;;;;;;22.20;46.40;;;;;;1517142;76;1964;-66
2023/04/13 09:50:28;;;;;;;;;;;22.20;46.30;;;;;;1524205;76;1453;-66
2023/04/13 09:52:30;;;;;;;;;;;22.20;46.30;;;;;;1522417;76;1286;-66
2023/04/13 09:54:32;;;;;;;;;;;22.20;46.40;;;;;;1516584;76;1441;-66
2023/04/13 09:56:44;;;;;;;;;;;22.20;46.40;;;;;;1514657;76;1421;-66
2023/04/13 09:58:46;;;;;;;;;;;22.20;46.30;;;;;;1511316;76;1240;-66
2023/04/13 10:00:49;;;;;;;;;;;22.20;46.30;;;;;;1521791;76;1510;-66
2023/04/13 10:02:51;;;;;;;;;;;22.10;46.30;;;;;;1524210;76;1498;-66
2023/04/13 10:04:53;;;;;;;;;;;22.10;46.30;;;;;;1517159;76;1537;-66
2023/04/13 10:06:55;;;;;;;;;;;22.10;46.30;;;;;;1510256;76;1935;-65
2023/04/13 10:08:56;;;;;;;;;;;22.10;46.30;;;;;;1512261;77;1539;-66
2023/04/13 10:10:59;;;;;;;;;;;22.10;46.30;;;;;;1518719;76;1498;-67
2023/04/13 10:13:01;;;;;;;;;;;22.10;46.30;;;;;;1527353;76;1512;-66
2023/04/13 10:15:23;;;;;;;;;;;22.10;46.30;;;;;;1520355;76;1333;-67
2023/04/13 10:17:27;;;;;;;;;;;22.10;46.30;;;;;;1516898;76;1542;-67
2023/04/13 10:19:29;;;;;;;;;;;22.00;46.30;;;;;;1509900;76;1483;-67
2023/04/13 10:21:38;;;;;;;;;;;22.00;46.30;;;;;;1517782;76;1453;-66
2023/04/13 10:23:39;;;;;;;;;;;22.00;46.40;;;;;;1511874;76;1767;-66
2023/04/13 10:25:51;;;;;;;;;;;22.00;46.40;;;;;;1515971;76;1496;-66
2023/04/13 10:27:57;;;;;;;;;;;22.00;46.40;;;;;;1516569;76;1925;-67
2023/04/13 10:30:02;;;;;;;;;;;22.00;46.50;;;;;;1526172;76;1216;-66
2023/04/13 10:32:05;;;;;;;;;;;21.90;46.50;;;;;;1504463;76;1844;-67
2023/04/13 10:34:07;;;;;;;;;;;21.90;46.50;;;;;;1527668;75;1563;-67
2023/04/13 10:36:09;;;;;;;;;;;22.00;46.50;;;;;;1525324;76;1483;-66
2023/04/13 10:38:11;;;;;;;;;;;21.90;46.50;;;;;;1515649;76;1532;-66
2023/04/13 10:40:15;;;;;;;;;;;22.00;46.60;;;;;;1526913;76;1447;-66
2023/04/13 10:42:16;;;;;;;;;;;21.90;46.70;;;;;;1501165;76;1392;-66
2023/04/13 10:44:18;;;;;;;;;;;22.00;46.70;;;;;;1510753;76;1524;-66
2023/04/13 10:46:20;;;;;;;;;;;22.00;46.80;;;;;;1529511;76;1324;-66
2023/04/13 10:48:22;;;;;;;;;;;21.90;46.90;;;;;;1516520;76;1959;-67
2023/04/13 10:50:26;;;;;;;;;;;22.00;46.90;;;;;;1522526;76;1645;-65
2023/04/13 10:52:28;;;;;;;;;;;21.90;47.10;;;;;;1518265;76;1721;-66
2023/04/13 10:54:30;;;;;;;;;;;22.00;47.10;;;;;;1509950;76;1495;-66
2023/04/13 10:56:32;;;;;;;;;;;21.90;47.30;;;;;;1506856;76;1570;-67
2023/04/13 10:58:34;;;;;;;;;;;22.00;47.30;;;;;;1518136;76;1516;-66
2023/04/13 11:00:38;;;;;;;;;;;21.90;47.40;;;;;;1534364;75;1295;-66
2023/04/13 11:02:40;;;;;;;;;;;21.90;47.50;;;;;;1550598;75;1628;-65
2023/04/13 11:04:42;;;;;;;;;;;21.90;47.60;;;;;;1553628;75;1456;-66
2023/04/13 11:06:45;;;;;;;;;;;21.90;47.70;;;;;;1543377;76;1146;-66
2023/04/13 11:08:47;;;;;;;;;;;21.90;47.70;;;;;;1542534;76;1924;-67
2023/04/13 11:10:50;;;;;;;;;;;21.90;47.80;;;;;;1556378;76;1736;-66
2023/04/13 11:12:52;;;;;;;;;;;21.90;47.80;;;;;;1544387;75;1505;-65
2023/04/13 11:14:54;;;;;;;;;;;21.90;47.80;;;;;;1542605;75;1575;-67
2023/04/13 11:16:56;;;;;;;;;;;21.80;47.80;;;;;;1543723;75;1452;-65
2023/04/13 11:19:02;;;;;;;;;;;21.90;47.90;;;;;;1547532;76;1386;-66
2023/04/13 11:21:04;;;;;;;;;;;21.90;47.90;;;;;;1552098;75;1453;-66
2023/04/13 11:23:07;;;;;;;;;;;21.80;47.80;;;;;;1546150;75;1493;-66
2023/04/13 11:25:09;;;;;;;;;;;21.90;47.90;;;;;;1543193;76;1533;-66
2023/04/13 11:27:19;;;;;;;;;;;21.80;47.80;;;;;;1555744;76;1927;-65
2023/04/13 11:29:21;;;;;;;;;;;21.80;47.80;;;;;;1544555;75;1550;-66
2023/04/13 11:31:23;;;;;;;;;;;21.80;48.00;;;;;;1549167;76;1439;-66
2023/04/13 11:33:26;;;;;;;;;;;21.80;48.00;;;;;;1520784;77;1405;-67
2023/04/13 11:35:27;;;;;;;;;;;21.80;48.00;;;;;;1554732;76;1419;-66
2023/04/13 11:37:31;;;;;;;;;;;21.80;48.10;;;;;;1542295;76;1308;-66
2023/04/13 11:39:35;;;;;;;;;;;21.80;48.10;;;;;;1555018;75;1480;-67
2023/04/13 11:41:40;;;;;;;;;;;21.80;48.00;;;;;;1553242;75;1347;-65
2023/04/13 11:43:44;;;;;;;;;;;21.80;48.00;;;;;;1544765;75;1498;-66
2023/04/13 11:45:48;;;;;;;;;;;21.70;48.10;;;;;;1552401;76;1142;-66
2023/04/13 11:47:50;;;;;;;;;;;21.80;48.20;;;;;;1542971;76;1923;-66
2023/04/13 11:49:52;;;;;;;;;;;21.70;48.20;;;;;;1548586;76;1511;-66
2023/04/13 11:51:54;;;;;;;;;;;21.80;48.30;;;;;;1550841;76;1520;-66
2023/04/13 11:53:57;;;;;;;;;;;21.70;48.20;;;;;;1548876;76;1145;-66
2023/04/13 11:55:59;;;;;;;;;;;21.70;48.30;;;;;;1551748;76;1483;-66
2023/04/13 11:58:02;;;;;;;;;;;21.80;48.30;;;;;;1550083;75;1306;-66
2023/04/13 12:00:12;;;;;;;;;;;21.70;48.40;;;;;;1553536;76;1861;-67
2023/04/13 12:02:11;;;;;;;;;;;21.70;48.40;;;;;;1539043;76;1717;-66
2023/04/13 12:04:13;;;;;;;;;;;21.70;48.40;;;;;;1538821;75;1407;-66
2023/04/13 12:06:15;;;;;;;;;;;21.70;48.40;;;;;;1544465;75;1242;-65
2023/04/13 12:08:25;;;;;;;;;;;21.80;48.40;;;;;;1551140;75;1967;-65